Aérodrome :
LOGIN :

S'inscrire | Disclaimer

   EN    FR    IT 

 










Légende :    VFR   VFR Marginal   IFR   IFR Intensif   IFR Très Intensif
Visi : 
Plafond : 
>= 8 km
>= 3000ft
5 à 8 km
1000 à 3000 ft
1500m à 5 km
500 à 1000 ft
800 à 1500m
200 à 500 ft
< 800m
< 200 ft
Symboles :   Orages  Brouillard  Fortes neiges  Fortes précipitations  Vent > 20 kt
SIGMETs :   Divers  Orages  Givrage  Turbulence  Onde Orograph.  Cendres Volcan.







- Altitude de l'aérodrome : 215 ft
- Code IATA : TAR


LIBG - Grottaglie Arpt. Taranto

DERNIER METAR :
  • 261850Z 32009KT 280V350 9999 SCT030 13/08 Q1013

METARs EXPIRÉS :
  • 261750Z 35007KT 9999 SCT030 13/09 Q1012
  • 261650Z 35012KT 9999 SCT030 14/09 Q1012

TAF TAF LIBG
Valide du 26 à 18h jusqu'au 27 à 03h UTC


261700Z 2618/2703 35012KT 9999 SCT020 SCT040
Pas de NOTAMs connus pour ce terrain.
2 SIGMETs publiés pour la FIR Brindisi (LIBB) :
 
Orages noyés dans la masse
LIBB SIGMET 5 VALID 262030/262230 LIIB
LIBB BRINDISI FIR EMBD TS FCST WI N4236 E01328 - N4252 E01528 - N4216 E01619 - N4134 E01757 - N3927 E01611 - N4115 E01510 - N4124 E01422 - N4236 E01328 TOP FL270 STNR WKN=
Orages noyés dans la masse
LIBB SIGMET 4 VALID 261730/262030 LIIB
LIBB BRINDISI FIR EMBD TS FCST WI N4236 E01328 - N4252 E01528 - N4216 E01619 - N4134 E01757 - N3927 E01611 - N4115 E01510 - N4124 E01422 - N4236 E01328 TOP FL270 STNR NC=



MET'MAP, la Météo Aéronautique d'un coup d'oeil ! - Copyright ORBIFLY Décembre 2007 - Disclaimer

ORBIFLY MET'MAP TEAM :

Programmation & Développement : Alexandra Zaïnal
Conception & Développement : Baudouin d'Aumeries
Co-Programmation & Développement : Marc-Olivier Méhu
Soutien technique & logistique : Manuel Goepfert

Contact : metmap@orbifly.com




SOURCES & CREDITS :

   NOAA